Time;durP1;ratioP1;P1;durP2;ratioP2;P2;SDS_P1;SDS_P2;PMS_P1;PMS_P2;Temp;Humidity;BMP_temperature;BMP_pressure;BME280_temperature;BME280_humidity;BME280_pressure;Samples;Min_cycle;Max_cycle;Signal;HPM_P1;HPM_P2
2022/09/25 00:00:42;;;;;;;4.53;2.42;;;;;;;28.14;21.61;97970.56;5063624;28;20043;-76
2022/09/25 00:03:09;;;;;;;3.80;2.00;;;;;;;28.32;21.40;97967.78;5064444;28;20398;-75
2022/09/25 00:05:37;;;;;;;3.30;1.85;;;;;;;28.10;21.61;97970.69;5067329;28;20032;-76
2022/09/25 00:08:04;;;;;;;3.72;2.20;;;;;;;27.79;22.04;97965.03;5067302;28;20097;-76
2022/09/25 00:10:31;;;;;;;3.67;1.92;;;;;;;27.80;22.18;97972.25;5048440;28;20021;-78
2022/09/25 00:12:57;;;;;;;3.47;2.00;;;;;;;28.00;22.14;97969.09;5070905;28;20118;-78
2022/09/25 00:15:24;;;;;;;4.03;1.83;;;;;;;27.99;22.14;97967.50;5065638;28;20097;-78
2022/09/25 00:17:50;;;;;;;1.98;1.77;;;;;;;28.08;22.46;97967.53;5069502;28;20032;-78
2022/09/25 00:20:23;;;;;;;2.40;1.60;;;;;;;28.23;22.11;97957.25;5070119;28;20039;-78
2022/09/25 00:22:49;;;;;;;2.25;1.60;;;;;;;28.03;22.49;97963.28;5070753;28;20040;-78
2022/09/25 00:25:16;;;;;;;2.15;1.95;;;;;;;27.95;22.77;97955.53;5071053;28;20043;-78
2022/09/25 00:27:44;;;;;;;2.50;1.50;;;;;;;27.80;22.67;97949.66;5065098;28;20035;-78
2022/09/25 00:30:12;;;;;;;2.40;1.88;;;;;;;28.12;22.36;97956.13;5070036;28;20031;-79
2022/09/25 00:32:39;;;;;;;2.05;1.83;;;;;;;28.44;22.23;97949.94;5064762;28;20044;-78
2022/09/25 00:35:06;;;;;;;2.55;2.08;;;;;;;28.75;21.75;97948.59;5059845;28;20029;-78
2022/09/25 00:37:34;;;;;;;3.88;1.73;;;;;;;28.98;21.41;97952.09;5065213;28;20051;-78
2022/09/25 00:40:00;;;;;;;1.80;1.70;;;;;;;29.11;21.23;97949.88;5070755;28;20032;-78
2022/09/25 00:42:27;;;;;;;5.05;1.40;;;;;;;28.95;21.67;97951.00;5066679;28;20113;-78
2022/09/25 00:45:01;;;;;;;2.55;1.63;;;;;;;29.03;21.79;97952.25;5063796;28;20044;-78
2022/09/25 00:47:36;;;;;;;2.22;1.70;;;;;;;28.79;21.88;97950.50;5066502;28;20024;-78
2022/09/25 00:50:15;;;;;;;2.58;1.30;;;;;;;28.83;22.15;97945.47;5061482;28;20394;-78
2022/09/25 00:52:41;;;;;;;2.38;1.70;;;;;;;29.12;21.64;97949.44;5065911;28;20382;-78
2022/09/25 00:55:08;;;;;;;1.90;1.48;;;;;;;29.10;21.66;97946.25;5056662;28;20037;-78
2022/09/25 00:57:37;;;;;;;2.10;1.55;;;;;;;28.94;22.12;97940.94;5072472;28;20024;-78
2022/09/25 01:00:10;;;;;;;2.13;1.70;;;;;;;29.04;21.96;97944.53;5067835;28;20165;-78
2022/09/25 01:02:41;;;;;;;3.00;1.75;;;;;;;29.02;21.71;97947.84;5069347;28;20027;-78
2022/09/25 01:05:11;;;;;;;1.63;1.40;;;;;;;29.16;21.68;97937.94;5057775;28;20368;-78
2022/09/25 01:07:42;;;;;;;1.35;1.25;;;;;;;28.93;22.04;97945.03;5066593;28;20573;-78
2022/09/25 01:10:09;;;;;;;2.00;1.50;;;;;;;28.70;22.21;97932.31;5061174;28;20103;-78
2022/09/25 01:12:38;;;;;;;1.30;1.20;;;;;;;28.65;22.30;97932.13;5071608;28;20086;-78
2022/09/25 01:15:11;;;;;;;1.45;1.30;;;;;;;28.86;21.54;97931.19;5054313;28;20059;-78
2022/09/25 01:18:15;;;;;;;1.67;1.40;;;;;;;28.53;22.44;97927.34;5054390;28;20029;-78
2022/09/25 01:21:03;;;;;;;2.13;1.40;;;;;;;28.51;22.10;97921.41;5090649;28;20028;-78
2022/09/25 01:23:44;;;;;;;2.15;1.40;;;;;;;28.53;21.96;97925.31;5059844;28;20115;-78
2022/09/25 01:26:48;;;;;;;2.15;1.42;;;;;;;28.48;22.06;97925.94;5068034;28;20035;-78
2022/09/25 01:29:45;;;;;;;1.92;1.27;;;;;;;28.57;21.97;97925.94;5064350;28;20517;-78
2022/09/25 01:32:33;;;;;;;1.42;1.33;;;;;;;28.57;21.80;97911.03;5067330;28;20493;-78
2022/09/25 01:35:16;;;;;;;0.95;0.95;;;;;;;28.17;22.28;97916.75;5074294;28;20429;-78
2022/09/25 01:38:05;;;;;;;2.55;1.73;;;;;;;27.74;22.83;97908.41;5076678;28;20115;-78
2022/09/25 01:40:56;;;;;;;1.83;1.42;;;;;;;27.64;22.94;97918.06;5072312;28;20394;-78
2022/09/25 01:43:40;;;;;;;1.42;1.20;;;;;;;27.78;22.77;97918.31;5068771;28;20041;-78
2022/09/25 01:46:14;;;;;;;2.08;1.27;;;;;;;28.16;22.41;97915.19;5071554;28;20037;-78
2022/09/25 01:48:43;;;;;;;2.88;1.17;;;;;;;28.37;22.11;97922.78;5073560;28;20028;-78
2022/09/25 01:51:23;;;;;;;5.05;1.30;;;;;;;28.32;22.34;97914.13;5063061;28;20029;-78
2022/09/25 01:53:55;;;;;;;1.48;1.33;;;;;;;28.67;21.91;97909.84;5073858;28;20490;-78
2022/09/25 01:56:31;;;;;;;3.00;1.38;;;;;;;28.83;21.68;97909.53;5071031;28;20068;-78
2022/09/25 01:59:23;;;;;;;1.20;1.02;;;;;;;28.81;21.74;97908.44;5072411;28;20577;-78
2022/09/25 02:01:51;;;;;;;1.73;1.10;;;;;;;29.01;21.50;97909.50;5065218;28;20120;-78
2022/09/25 02:04:33;;;;;;;1.70;1.40;;;;;;;28.91;21.84;97910.78;5073065;28;20490;-78
2022/09/25 02:07:05;;;;;;;1.63;1.20;;;;;;;28.83;21.58;97917.22;5057668;28;20040;-78
2022/09/25 02:09:44;;;;;;;1.42;1.33;;;;;;;28.80;22.08;97912.53;5061931;28;20033;-78
2022/09/25 02:12:16;;;;;;;1.50;1.10;;;;;;;28.82;22.09;97921.31;5051267;28;20032;-78
2022/09/25 02:14:51;;;;;;;1.10;1.00;;;;;;;29.01;22.05;97920.81;5073329;28;20052;-78
2022/09/25 02:20:31;;;;;;;1.60;1.15;;;;;;;29.14;21.80;97920.66;5055847;28;20056;-78
2022/09/25 02:23:19;;;;;;;2.17;1.33;;;;;;;29.18;21.76;97924.16;5085490;28;20041;-78
2022/09/25 02:26:07;;;;;;;1.45;1.08;;;;;;;29.11;22.04;97925.22;5057132;28;20059;-78
2022/09/25 02:28:34;;;;;;;1.50;1.10;;;;;;;29.28;21.64;97920.84;5061697;28;20027;-79
2022/09/25 02:31:05;;;;;;;1.88;1.40;;;;;;;29.48;21.61;97913.91;5073307;28;20094;-78
2022/09/25 02:33:31;;;;;;;1.45;0.90;;;;;;;29.61;21.37;97909.63;5073003;28;20055;-78
2022/09/25 02:36:00;;;;;;;1.77;1.00;;;;;;;29.46;21.46;97913.56;5059428;28;20028;-78
2022/09/25 02:38:27;;;;;;;1.15;1.05;;;;;;;29.51;21.12;97913.72;5075813;28;20032;-78
2022/09/25 02:41:08;;;;;;;1.35;1.00;;;;;;;29.24;21.56;97917.38;5052658;28;20433;-76
2022/09/25 02:43:45;;;;;;;1.95;1.30;;;;;;;29.13;21.68;97919.88;5056281;28;20123;-77
2022/09/25 02:46:26;;;;;;;1.52;1.10;;;;;;;29.09;22.03;97910.78;5075325;28;20056;-76
2022/09/25 02:49:19;;;;;;;2.70;1.10;;;;;;;29.20;21.93;97913.16;5072843;28;20466;-76
2022/09/25 02:52:00;;;;;;;1.83;1.30;;;;;;;29.31;21.87;97910.63;5073101;28;20110;-75
2022/09/25 02:54:52;;;;;;;2.00;1.02;;;;;;;29.52;21.44;97903.19;5070337;28;20032;-76
2022/09/25 02:57:31;;;;;;;1.45;1.10;;;;;;;29.47;21.31;97907.47;5055824;28;20044;-76
2022/09/25 03:00:03;;;;;;;1.75;1.25;;;;;;;29.45;21.24;97901.50;5075122;28;20036;-76
2022/09/25 03:02:31;;;;;;;1.50;1.27;;;;;;;29.49;21.34;97901.31;5073202;28;20078;-75
2022/09/25 03:04:59;;;;;;;1.92;1.30;;;;;;;29.27;21.61;97907.16;5069160;28;20478;-76
2022/09/25 03:07:25;;;;;;;1.40;0.90;;;;;;;28.85;22.04;97900.56;5053250;28;20025;-76
2022/09/25 03:09:54;;;;;;;1.38;1.20;;;;;;;28.68;22.78;97900.88;5072033;28;20037;-76
2022/09/25 03:12:20;;;;;;;2.75;1.30;;;;;;;28.89;22.29;97899.19;5073598;28;20111;-76
2022/09/25 03:14:47;;;;;;;2.60;1.40;;;;;;;29.20;21.76;97896.97;5073425;28;20103;-75
2022/09/25 03:17:14;;;;;;;1.80;1.50;;;;;;;29.53;21.51;97888.56;5073125;28;20037;-76
2022/09/25 03:19:40;;;;;;;1.13;0.90;;;;;;;29.68;21.48;97894.34;5089059;28;20481;-75
2022/09/25 03:22:06;;;;;;;1.63;1.30;;;;;;;29.78;21.48;97893.84;5079016;28;20029;-76
2022/09/25 03:24:33;;;;;;;1.20;1.10;;;;;;;29.60;21.44;97887.44;5069890;28;20094;-75
2022/09/25 03:26:59;;;;;;;1.58;1.00;;;;;;;29.14;22.21;97890.38;5057963;28;20029;-75
2022/09/25 03:29:25;;;;;;;1.42;1.10;;;;;;;29.08;22.09;97891.47;5044655;28;20060;-76
2022/09/25 03:31:51;;;;;;;1.30;1.00;;;;;;;29.04;22.16;97891.63;5079157;28;20048;-76
2022/09/25 03:34:18;;;;;;;1.92;1.35;;;;;;;29.38;21.75;97887.69;5068852;28;20033;-76
2022/09/25 03:36:46;;;;;;;2.13;1.33;;;;;;;29.53;21.63;97887.78;5064675;28;20024;-76
2022/09/25 03:39:14;;;;;;;1.02;0.93;;;;;;;29.52;21.77;97881.34;5068419;28;20086;-76
2022/09/25 03:41:42;;;;;;;2.00;1.20;;;;;;;29.20;21.84;97890.53;5064621;28;20029;-76
2022/09/25 03:44:08;;;;;;;3.15;1.27;;;;;;;28.91;22.16;97882.53;5062940;28;20101;-76
2022/09/25 03:46:35;;;;;;;2.13;1.30;;;;;;;29.26;21.72;97883.00;5069764;28;20078;-76
2022/09/25 03:49:02;;;;;;;1.23;1.02;;;;;;;29.54;21.57;97883.69;5068554;28;20035;-75
2022/09/25 03:51:29;;;;;;;1.20;1.10;;;;;;;29.73;21.50;97877.53;5068198;28;20551;-76
2022/09/25 03:53:56;;;;;;;1.35;1.17;;;;;;;29.90;21.13;97881.53;5070185;28;20230;-76
2022/09/25 03:56:24;;;;;;;1.10;1.00;;;;;;;29.70;21.41;97872.81;5058542;28;20062;-75
2022/09/25 03:58:53;;;;;;;1.45;0.93;;;;;;;28.91;22.07;97879.69;5067075;28;20418;-76
2022/09/25 04:01:19;;;;;;;2.03;1.42;;;;;;;28.86;22.11;97877.50;5063287;28;20040;-76
2022/09/25 04:03:46;;;;;;;2.03;1.33;;;;;;;29.21;21.80;97872.31;5072948;28;20029;-76
2022/09/25 04:06:17;;;;;;;1.42;1.27;;;;;;;29.52;21.62;97870.03;5066805;28;20029;-76
2022/09/25 04:08:43;;;;;;;;;;;;;;;29.45;21.45;97870.38;5062015;28;20056;-76
2022/09/25 04:11:10;;;;;;;1.80;1.20;;;;;;;29.20;21.49;97871.53;5066086;28;19920;-76
2022/09/25 04:13:36;;;;;;;1.75;1.48;;;;;;;28.88;22.00;97874.19;5063013;28;20029;-76
2022/09/25 04:16:04;;;;;;;2.55;1.55;;;;;;;28.67;22.23;97875.94;5062794;28;20056;-76
2022/09/25 04:18:31;;;;;;;1.77;1.10;;;;;;;28.51;22.54;97877.00;5062145;28;20102;-76
2022/09/25 04:20:58;;;;;;;1.80;1.25;;;;;;;28.51;22.73;97879.81;5062566;28;20040;-76
2022/09/25 04:23:25;;;;;;;2.53;1.70;;;;;;;28.74;22.40;97878.44;5061143;28;20055;-76
2022/09/25 04:25:52;;;;;;;1.58;1.25;;;;;;;29.02;22.12;97879.22;5061873;28;20080;-76
2022/09/25 04:28:18;;;;;;;1.55;1.35;;;;;;;29.28;21.73;97884.09;5069840;28;20036;-76
2022/09/25 04:30:45;;;;;;;1.38;1.15;;;;;;;29.49;21.47;97876.66;5065348;28;20034;-76
2022/09/25 04:35:55;;;;;;;1.27;0.95;;;;;;;29.25;21.92;97867.25;5064178;28;20043;-76
2022/09/25 04:38:22;;;;;;;1.63;1.10;;;;;;;29.33;21.69;97877.00;5065539;28;20078;-76
2022/09/25 04:40:48;;;;;;;1.63;1.13;;;;;;;29.47;21.48;97869.91;5039572;28;20033;-76
2022/09/25 04:43:14;;;;;;;1.27;1.17;;;;;;;29.61;21.18;97864.34;5063124;28;20036;-76
2022/09/25 04:45:40;;;;;;;3.08;1.25;;;;;;;29.24;21.77;97865.72;5061209;28;20063;-75
2022/09/25 04:48:06;;;;;;;1.20;1.10;;;;;;;29.39;21.78;97877.91;5064988;28;20044;-76
2022/09/25 04:50:33;;;;;;;1.98;1.40;;;;;;;29.61;21.54;97872.06;5068771;28;20032;-75
2022/09/25 04:52:59;;;;;;;1.85;1.10;;;;;;;29.44;21.71;97868.78;5063332;28;20163;-76
2022/09/25 04:55:26;;;;;;;1.13;1.00;;;;;;;29.35;21.67;97866.00;5068114;28;20482;-75
2022/09/25 04:57:53;;;;;;;1.38;1.23;;;;;;;29.04;21.97;97876.69;5067148;28;20041;-76
2022/09/25 05:00:21;;;;;;;1.27;1.10;;;;;;;28.72;22.29;97884.56;5065868;28;20029;-75
2022/09/25 05:02:47;;;;;;;3.53;1.50;;;;;;;28.64;22.41;97877.66;5067173;28;20398;-76
2022/09/25 05:05:14;;;;;;;3.17;1.40;;;;;;;28.77;22.63;97876.72;5064750;28;20028;-76
2022/09/25 05:07:54;;;;;;;4.90;1.27;;;;;;;28.67;22.12;97873.09;5046929;28;20029;-76
2022/09/25 05:10:21;;;;;;;1.70;1.40;;;;;;;28.70;22.36;97875.00;5064735;28;20032;-75
2022/09/25 05:12:53;;;;;;;2.35;1.23;;;;;;;28.90;22.02;97868.84;5065340;28;20024;-76
2022/09/25 05:15:19;;;;;;;0.93;0.90;;;;;;;29.36;21.88;97865.50;5063996;28;20502;-75
2022/09/25 05:17:45;;;;;;;1.33;1.00;;;;;;;29.48;21.92;97863.75;5063496;28;20032;-76
2022/09/25 05:20:11;;;;;;;2.78;1.00;;;;;;;29.20;21.90;97877.19;5058136;28;20033;-76
2022/09/25 05:22:37;;;;;;;1.23;1.00;;;;;;;29.19;21.86;97869.97;5062247;28;20025;-76
2022/09/25 05:25:04;;;;;;;1.30;1.20;;;;;;;28.82;22.82;97867.63;5066746;28;20107;-76
2022/09/25 05:27:34;;;;;;;1.30;1.02;;;;;;;28.69;23.19;97865.72;5064266;28;20131;-76
2022/09/25 05:30:00;;;;;;;2.88;1.42;;;;;;;28.77;22.75;97869.03;5059719;28;20032;-76
2022/09/25 05:32:26;;;;;;;1.83;1.10;;;;;;;28.97;22.67;97866.50;5065087;28;20087;-76
2022/09/25 05:34:52;;;;;;;2.50;1.27;;;;;;;29.42;22.56;97866.47;5067164;28;20044;-76
2022/09/25 05:37:18;;;;;;;1.63;1.20;;;;;;;29.80;22.59;97871.50;5069398;28;20062;-77
2022/09/25 05:39:44;;;;;;;1.15;1.05;;;;;;;29.66;22.83;97866.53;5067311;28;20043;-77
2022/09/25 05:42:11;;;;;;;1.65;1.23;;;;;;;29.53;21.97;97863.09;5069518;28;20028;-77
2022/09/25 05:44:40;;;;;;;1.15;1.05;;;;;;;29.64;22.33;97869.03;5070017;28;20165;-76
2022/09/25 05:47:06;;;;;;;2.78;1.10;;;;;;;30.07;22.68;97876.28;5066299;28;20033;-77
2022/09/25 05:49:32;;;;;;;1.80;1.30;;;;;;;29.85;23.04;97870.09;5068980;28;20036;-77
2022/09/25 05:51:58;;;;;;;1.52;1.25;;;;;;;29.49;23.36;97867.38;5072266;28;20036;-76
2022/09/25 05:54:24;;;;;;;1.30;0.90;;;;;;;29.52;23.71;97874.91;5066547;28;20181;-78
2022/09/25 05:56:51;;;;;;;1.27;1.15;;;;;;;29.71;23.06;97867.94;5063484;28;20505;-78
2022/09/25 05:59:17;;;;;;;1.52;1.10;;;;;;;29.89;23.30;97874.34;5063540;28;20446;-79
2022/09/25 06:01:43;;;;;;;1.25;1.15;;;;;;;30.04;23.32;97875.19;5059010;28;20507;-80
2022/09/25 06:04:09;;;;;;;1.75;1.10;;;;;;;29.94;22.85;97882.16;5061042;28;20029;-79
2022/09/25 06:06:37;;;;;;;1.30;1.17;;;;;;;30.12;22.57;97877.66;5069418;28;20028;-79
2022/09/25 06:09:03;;;;;;;1.38;1.23;;;;;;;29.95;22.66;97880.91;5040556;28;20032;-79
2022/09/25 06:11:30;;;;;;;1.77;0.95;;;;;;;29.47;23.10;97878.38;5048113;28;20421;-78
2022/09/25 06:13:56;;;;;;;1.73;1.40;;;;;;;29.21;23.89;97873.09;5049749;28;20052;-78
2022/09/25 06:16:22;;;;;;;1.85;1.30;;;;;;;29.05;24.40;97878.28;5069537;28;20036;-79
2022/09/25 06:18:49;;;;;;;1.77;1.33;;;;;;;29.33;23.64;97877.78;5063533;28;20410;-78
2022/09/25 06:21:18;;;;;;;1.85;1.23;;;;;;;29.50;23.42;97868.94;5069706;28;20402;-79
2022/09/25 06:23:45;;;;;;;1.75;1.50;;;;;;;29.24;23.76;97874.97;5066905;28;20032;-77
2022/09/25 06:26:11;;;;;;;1.05;1.00;;;;;;;29.08;23.74;97872.44;5068285;28;20032;-78
2022/09/25 06:28:38;;;;;;;1.70;1.60;;;;;;;29.12;23.95;97877.94;5063805;28;20025;-80
2022/09/25 06:31:07;;;;;;;1.13;1.02;;;;;;;29.37;23.72;97884.06;5062344;28;20051;-79
2022/09/25 06:33:33;;;;;;;1.67;1.23;;;;;;;29.82;23.18;97885.22;5061736;28;20025;-79
2022/09/25 06:36:00;;;;;;;1.58;1.48;;;;;;;30.04;22.87;97888.56;5068124;28;20493;-79
2022/09/25 06:38:26;;;;;;;1.88;1.35;;;;;;;29.96;23.18;97881.69;5064916;28;20461;-78
2022/09/25 06:40:52;;;;;;;1.77;1.30;;;;;;;30.20;22.41;97881.72;5064247;28;20043;-79
2022/09/25 06:43:18;;;;;;;1.52;1.42;;;;;;;30.06;23.14;97889.66;5063255;28;20317;-79
2022/09/25 06:45:48;;;;;;;1.40;1.30;;;;;;;29.79;23.14;97884.13;5066554;28;20036;-78
2022/09/25 06:48:15;;;;;;;1.45;1.35;;;;;;;30.12;23.84;97875.63;5049388;28;20037;-79
2022/09/25 06:50:53;;;;;;;2.78;1.80;;;;;;;30.35;24.67;97876.94;5066748;28;20016;-79
2022/09/25 06:53:22;;;;;;;2.92;2.28;;;;;;;30.19;24.03;97875.28;5062468;28;20705;-78
2022/09/25 06:55:49;;;;;;;3.17;2.20;;;;;;;30.17;24.21;97866.47;5057356;28;20028;-78
2022/09/25 06:58:19;;;;;;;2.08;1.67;;;;;;;30.18;24.25;97870.84;5063424;28;20063;-79
2022/09/25 07:00:47;;;;;;;2.58;1.90;;;;;;;30.24;24.11;97871.00;5062144;28;20064;-80
2022/09/25 07:06:23;;;;;;;4.10;1.63;;;;;;;30.31;24.43;97856.47;4988601;28;20081;-78
2022/09/25 07:08:49;;;;;;;3.28;2.25;;;;;;;30.20;24.40;97862.66;5049484;28;20110;-78
2022/09/25 07:11:19;;;;;;;2.00;1.80;;;;;;;29.97;25.01;97866.25;5063509;28;20036;-78
2022/09/25 07:13:45;;;;;;;2.28;1.92;;;;;;;29.86;24.54;97878.09;5066623;28;20123;-79
2022/09/25 07:16:14;;;;;;;2.50;1.42;;;;;;;29.91;25.43;97874.63;5063238;28;20532;-79
2022/09/25 07:18:40;;;;;;;2.17;1.98;;;;;;;29.73;25.79;97876.72;5066210;28;20064;-79
2022/09/25 07:21:12;;;;;;;3.08;2.67;;;;;;;29.81;26.17;97867.44;5065454;28;20039;-79
2022/09/25 07:23:40;;;;;;;1.92;1.60;;;;;;;29.69;24.64;97876.88;5056776;28;20033;-79
2022/09/25 07:26:10;;;;;;;1.67;1.58;;;;;;;29.30;25.73;97869.47;5062700;28;20048;-79
2022/09/25 07:28:38;;;;;;;1.83;1.70;;;;;;;29.87;24.95;97870.41;5062356;28;20067;-79
2022/09/25 07:31:18;;;;;;;2.30;1.70;;;;;;;30.11;24.95;97873.28;5056050;28;21864;-78
2022/09/25 07:33:45;;;;;;;;;;;;;;;29.63;24.45;97872.34;5062372;28;21856;-78
2022/09/25 07:36:12;;;;;;;1.70;1.50;;;;;;;29.90;25.34;97875.09;5056477;28;19917;-78
2022/09/25 07:38:39;;;;;;;2.55;1.67;;;;;;;30.18;25.36;97875.75;5063977;28;20029;-78
2022/09/25 07:41:06;;;;;;;1.45;1.20;;;;;;;30.78;25.16;97873.47;5059597;28;20060;-78
2022/09/25 07:43:33;;;;;;;1.35;1.25;;;;;;;30.90;24.23;97868.84;5063670;28;20497;-78
2022/09/25 07:46:00;;;;;;;2.17;1.55;;;;;;;30.46;24.64;97863.78;5070055;28;20075;-78
2022/09/25 07:48:29;;;;;;;1.50;1.40;;;;;;;30.43;25.02;97873.28;5070183;28;20040;-78
2022/09/25 07:51:09;;;;;;;1.60;1.48;;;;;;;30.67;25.20;97871.19;5072589;28;20109;-78
2022/09/25 07:53:36;;;;;;;1.23;1.13;;;;;;;30.95;24.11;97882.34;5069214;28;20032;-78
2022/09/25 07:56:02;;;;;;;1.63;1.30;;;;;;;31.42;23.81;97877.31;5070168;28;20037;-78
2022/09/25 07:58:28;;;;;;;2.40;1.60;;;;;;;31.52;23.25;97878.00;5067644;28;20029;-78
2022/09/25 08:00:59;;;;;;;2.78;2.20;;;;;;;31.67;23.44;97884.44;5066714;28;20032;-79
2022/09/25 08:03:25;;;;;;;1.50;1.40;;;;;;;31.29;24.34;97876.81;5072221;28;20020;-78
2022/09/25 08:06:03;;;;;;;1.60;1.50;;;;;;;31.60;23.73;97872.72;5070577;28;20028;-78
2022/09/25 08:08:29;;;;;;;1.90;1.70;;;;;;;31.46;23.91;97868.59;5068193;28;20123;-78
2022/09/25 08:11:01;;;;;;;1.70;1.40;;;;;;;31.41;24.00;97872.88;5063972;28;20083;-78
2022/09/25 08:13:28;;;;;;;1.95;1.83;;;;;;;31.18;23.92;97864.47;5069352;28;20043;-79
2022/09/25 08:15:55;;;;;;;1.60;1.50;;;;;;;30.56;25.63;97870.97;5066890;28;20083;-78
2022/09/25 08:18:21;;;;;;;1.38;1.27;;;;;;;30.30;25.65;97869.06;5073692;28;20033;-78
2022/09/25 08:20:47;;;;;;;2.15;1.70;;;;;;;30.57;25.38;97866.84;5072876;28;20382;-78
2022/09/25 08:23:13;;;;;;;1.13;1.02;;;;;;;30.94;23.94;97858.88;5072434;28;20393;-78
2022/09/25 08:25:39;;;;;;;1.65;1.55;;;;;;;31.27;24.78;97862.31;5050459;28;20505;-78
2022/09/25 08:28:05;;;;;;;1.67;1.58;;;;;;;31.36;25.20;97867.13;5072879;28;20037;-78
2022/09/25 08:30:31;;;;;;;1.77;1.60;;;;;;;31.12;24.51;97857.91;5054435;28;21803;-79
2022/09/25 08:32:58;;;;;;;1.40;1.30;;;;;;;31.55;23.62;97857.19;5033636;28;20044;-78
2022/09/25 08:35:24;;;;;;;1.95;1.50;;;;;;;31.87;23.41;97855.34;5068004;28;20055;-78
2022/09/25 08:37:51;;;;;;;1.73;1.20;;;;;;;32.03;23.42;97855.63;5050706;28;20117;-78
2022/09/25 08:40:25;;;;;;;1.73;1.63;;;;;;;32.73;24.17;97850.66;5055746;28;20056;-78
2022/09/25 08:42:53;;;;;;;1.20;1.10;;;;;;;33.25;24.06;97847.91;5071801;28;20040;-78
2022/09/25 08:49:08;;;;;;;1.73;1.00;;;;;;;34.05;22.99;97849.66;5062701;28;21966;-78
2022/09/25 08:51:44;;;;;;;1.00;0.90;;;;;;;34.38;23.16;97846.97;4968710;28;20121;-78
2022/09/25 08:54:25;;;;;;;0.82;0.82;;;;;;;34.54;20.93;97848.41;5071192;28;20044;-78
2022/09/25 08:57:11;;;;;;;1.23;1.13;;;;;;;33.91;21.03;97839.16;5063876;28;20081;-79
2022/09/25 08:59:41;;;;;;;1.20;1.10;;;;;;;33.79;21.78;97834.66;5069571;28;20032;-77
2022/09/25 09:02:15;;;;;;;1.30;0.80;;;;;;;33.80;21.43;97816.28;5064652;28;20095;-77
2022/09/25 09:04:50;;;;;;;1.40;1.30;;;;;;;33.26;22.20;97830.31;5071635;28;20136;-77
2022/09/25 09:07:39;;;;;;;1.15;0.98;;;;;;;33.81;22.36;97820.69;5061075;28;20115;-76
2022/09/25 09:10:32;;;;;;;1.33;1.10;;;;;;;34.47;22.12;97815.38;5060993;28;20033;-77
2022/09/25 09:13:15;;;;;;;1.20;1.10;;;;;;;34.69;20.97;97817.59;5064868;28;20059;-79
2022/09/25 09:15:48;;;;;;;1.30;1.20;;;;;;;34.56;20.50;97820.16;5066158;28;20037;-77
2022/09/25 09:18:22;;;;;;;1.13;1.02;;;;;;;34.37;21.89;97808.38;5063219;28;20144;-78
2022/09/25 09:20:55;;;;;;;2.22;2.00;;;;;;;30.42;28.24;97809.34;5061588;28;20127;-76
2022/09/25 09:23:26;;;;;;;1.63;1.52;;;;;;;30.19;28.39;97807.28;5059307;28;20937;-76
2022/09/25 09:25:59;;;;;;;2.10;1.45;;;;;;;31.10;26.04;97807.34;5066132;28;20039;-77
2022/09/25 09:28:52;;;;;;;1.88;1.77;;;;;;;29.74;25.52;97801.88;5062949;28;20036;-76
2022/09/25 09:31:40;;;;;;;2.38;1.45;;;;;;;31.19;25.31;97795.13;5064585;28;20044;-77
2022/09/25 09:34:18;;;;;;;2.20;2.00;;;;;;;30.00;28.40;97797.34;5063931;28;20162;-77
2022/09/25 09:37:17;;;;;;;3.38;3.08;;;;;;;28.08;28.95;97807.44;5067888;28;20040;-78
2022/09/25 09:39:56;;;;;;;2.65;2.30;;;;;;;29.24;28.32;97809.16;5062359;28;20770;-77
2022/09/25 09:42:52;;;;;;;3.13;2.80;;;;;;;29.67;27.38;97805.84;5059774;28;20394;-77
2022/09/25 09:45:57;;;;;;;3.63;2.83;;;;;;;28.69;28.18;97814.06;5058938;28;20127;-77
2022/09/25 09:48:24;;;;;;;2.22;2.03;;;;;;;29.32;28.09;97813.19;5058467;28;20048;-76
2022/09/25 09:50:59;;;;;;;2.50;2.30;;;;;;;30.03;29.90;97811.34;5064820;28;20032;-76
2022/09/25 09:53:29;;;;;;;3.00;2.70;;;;;;;28.59;29.67;97812.53;5048934;28;20036;-76
2022/09/25 09:56:09;;;;;;;3.88;2.70;;;;;;;28.49;28.97;97819.41;5071159;28;20097;-77
2022/09/25 09:58:54;;;;;;;3.28;2.70;;;;;;;28.56;28.91;97819.09;5062891;28;20673;-76
2022/09/25 10:01:23;;;;;;;5.43;2.97;;;;;;;28.96;30.37;97807.63;5064925;28;20033;-77
2022/09/25 10:03:59;;;;;;;2.85;2.58;;;;;;;29.23;28.09;97811.19;5070270;28;20032;-76
2022/09/25 10:06:29;;;;;;;4.45;3.50;;;;;;;28.62;28.89;97812.34;5076689;28;20036;-76
2022/09/25 10:08:55;;;;;;;3.05;2.55;;;;;;;29.10;28.54;97796.41;5072244;28;20097;-76
2022/09/25 10:11:22;;;;;;;2.88;2.58;;;;;;;30.12;27.05;97804.03;5051745;28;20025;-76
2022/09/25 10:13:48;;;;;;;2.65;2.40;;;;;;;29.82;27.19;97798.25;5070600;28;20051;-77
2022/09/25 10:16:23;;;;;;;2.78;2.40;;;;;;;29.50;28.50;97796.16;5071461;28;20497;-76
2022/09/25 10:19:11;;;;;;;3.15;2.10;;;;;;;29.79;28.25;97784.25;5070088;28;20409;-76
2022/09/25 10:21:42;;;;;;;2.95;2.47;;;;;;;29.79;27.78;97787.09;5069934;28;20039;-76
2022/09/25 10:24:08;;;;;;;2.85;2.35;;;;;;;28.24;29.74;97791.47;5071521;28;20124;-76
2022/09/25 10:26:37;;;;;;;4.25;3.05;;;;;;;27.93;31.15;97797.19;5071233;28;20029;-76
2022/09/25 10:29:07;;;;;;;2.90;2.60;;;;;;;28.22;29.13;97788.28;5066413;28;20127;-76
2022/09/25 10:31:37;;;;;;;3.65;2.45;;;;;;;28.70;28.11;97788.19;5058850;28;20490;-78
2022/09/25 10:34:21;;;;;;;4.25;3.17;;;;;;;28.81;28.78;97790.53;5063375;28;20048;-78
2022/09/25 10:36:52;;;;;;;3.38;2.70;;;;;;;28.08;29.76;97798.16;5067164;28;20032;-79
2022/09/25 10:39:35;;;;;;;3.75;3.25;;;;;;;28.52;27.62;97801.53;5071092;28;20043;-79
2022/09/25 10:42:07;;;;;;;3.28;2.97;;;;;;;28.63;28.54;97802.63;5070588;28;20063;-77
2022/09/25 10:44:35;;;;;;;5.60;4.72;;;;;;;27.74;30.30;97798.38;5068669;28;20499;-77
2022/09/25 10:50:23;;;;;;;3.08;2.63;;;;;;;28.03;29.42;97804.44;5069680;28;20083;-78
2022/09/25 10:52:51;;;;;;;3.80;2.88;;;;;;;28.58;29.02;97799.63;5063478;28;20040;-77
2022/09/25 10:55:50;;;;;;;4.35;2.78;;;;;;;29.70;26.59;97792.78;5064974;28;20040;-80
2022/09/25 10:58:26;;;;;;;3.25;2.40;;;;;;;30.63;25.81;97796.13;5066939;28;20064;-80
2022/09/25 11:00:56;;;;;;;2.72;2.33;;;;;;;30.57;25.69;97786.72;5044752;28;20033;-81
2022/09/25 11:03:33;;;;;;;2.97;2.53;;;;;;;29.65;27.46;97787.75;5071633;28;20445;-77
2022/09/25 11:06:19;;;;;;;2.80;2.60;;;;;;;29.61;27.99;97785.13;5064837;28;20517;-80
2022/09/25 11:08:48;;;;;;;5.40;3.72;;;;;;;28.01;30.76;97790.78;5048964;28;20039;-80
2022/09/25 11:11:25;;;;;;;4.65;3.40;;;;;;;28.05;29.42;97782.94;5065508;28;20025;-79
2022/09/25 11:13:54;;;;;;;4.88;4.38;;;;;;;27.77;31.17;97778.47;5070239;28;20070;-80
2022/09/25 11:16:20;;;;;;;3.65;3.13;;;;;;;27.71;31.74;97771.88;5068757;28;20033;-78
2022/09/25 11:19:11;;;;;;;4.00;3.50;;;;;;;28.47;31.47;97779.53;5062107;28;20055;-83
2022/09/25 11:22:24;;;;;;;6.22;4.05;;;;;;;27.53;29.94;97785.16;5061997;28;20067;-80
2022/09/25 11:25:11;;;;;;;5.43;4.55;;;;;;;28.16;30.20;97785.34;5063933;28;20478;-77
2022/09/25 11:27:45;;;;;;;4.80;4.30;;;;;;;28.88;29.34;97772.44;5066088;28;20143;-77
2022/09/25 11:30:17;;;;;;;6.60;5.75;;;;;;;28.26;29.50;97780.47;5064653;28;20044;-80
2022/09/25 11:33:05;;;;;;;6.28;5.47;;;;;;;27.34;30.24;97784.25;5068748;28;20517;-78
2022/09/25 11:35:49;;;;;;;7.80;5.35;;;;;;;28.63;28.92;97784.91;5067133;28;20410;-80
2022/09/25 11:41:37;;;;;;;8.30;4.53;;;;;;;29.20;28.64;97775.38;5061978;28;20035;-78
2022/09/25 11:44:32;;;;;;;4.72;4.20;;;;;;;29.28;28.34;97770.97;5057972;28;20294;-79
2022/09/25 11:47:10;;;;;;;6.68;5.97;;;;;;;28.70;27.64;97759.94;5068465;28;20036;-77
2022/09/25 11:49:39;;;;;;;7.25;5.65;;;;;;;27.74;31.00;97764.53;5066188;28;20043;-80
2022/09/25 11:52:38;;;;;;;6.85;4.90;;;;;;;27.67;29.71;97757.16;5062768;28;20498;-80
2022/09/25 11:55:17;;;;;;;7.10;6.20;;;;;;;26.58;33.34;97753.75;5060180;28;20055;-81
2022/09/25 11:58:10;;;;;;;11.02;7.07;;;;;;;26.06;32.35;97764.88;5067694;28;20472;-78
2022/09/25 12:00:45;;;;;;;8.55;6.70;;;;;;;25.87;33.44;97765.94;5063823;28;20031;-78
2022/09/25 12:03:20;;;;;;;9.40;6.78;;;;;;;26.47;32.59;97759.00;5065708;28;20149;-81
2022/09/25 12:06:04;;;;;;;10.13;6.95;;;;;;;26.61;30.55;97752.84;5063000;28;20036;-78
2022/09/25 12:09:14;;;;;;;9.30;7.63;;;;;;;26.13;32.17;97744.97;5059521;28;20107;-78
2022/09/25 12:11:48;;;;;;;6.95;5.78;;;;;;;27.28;31.72;97738.19;5067428;28;20033;-79
2022/09/25 12:14:24;;;;;;;7.45;6.63;;;;;;;27.20;30.82;97729.25;5063887;28;20033;-78
2022/09/25 12:17:03;;;;;;;9.45;5.82;;;;;;;28.05;29.85;97729.31;5068240;28;20043;-80